sensor_id;sensor_type;location;lat;lon;timestamp;P1;durP1;ratioP1;P2;durP2;ratioP2
60634;SDS011;46454;53.170;6.630;2022-07-03T00:01:11;5.15;;;2.42;;
60634;SDS011;46454;53.170;6.630;2022-07-03T00:03:40;3.47;;;2.30;;
60634;SDS011;46454;53.170;6.630;2022-07-03T00:06:05;4.50;;;2.40;;
60634;SDS011;46454;53.170;6.630;2022-07-03T00:08:31;5.90;;;2.35;;
60634;SDS011;46454;53.170;6.630;2022-07-03T00:10:57;3.80;;;2.30;;
60634;SDS011;46454;53.170;6.630;2022-07-03T00:13:22;4.75;;;2.40;;
60634;SDS011;46454;53.170;6.630;2022-07-03T00:15:48;5.63;;;2.42;;
60634;SDS011;46454;53.170;6.630;2022-07-03T00:18:14;4.15;;;2.58;;
60634;SDS011;46454;53.170;6.630;2022-07-03T00:20:47;4.35;;;2.50;;
60634;SDS011;46454;53.170;6.630;2022-07-03T00:23:18;5.28;;;2.70;;
60634;SDS011;46454;53.170;6.630;2022-07-03T00:25:46;5.22;;;2.42;;
60634;SDS011;46454;53.170;6.630;2022-07-03T00:28:14;3.38;;;2.45;;
60634;SDS011;46454;53.170;6.630;2022-07-03T00:30:40;6.88;;;2.88;;
60634;SDS011;46454;53.170;6.630;2022-07-03T00:33:09;5.68;;;2.83;;
60634;SDS011;46454;53.170;6.630;2022-07-03T00:35:35;4.25;;;2.70;;
60634;SDS011;46454;53.170;6.630;2022-07-03T00:38:04;5.32;;;2.97;;
60634;SDS011;46454;53.170;6.630;2022-07-03T00:40:30;4.78;;;2.65;;
60634;SDS011;46454;53.170;6.630;2022-07-03T00:42:56;4.70;;;2.83;;
60634;SDS011;46454;53.170;6.630;2022-07-03T00:45:24;6.70;;;3.50;;
60634;SDS011;46454;53.170;6.630;2022-07-03T00:47:51;5.90;;;3.83;;
60634;SDS011;46454;53.170;6.630;2022-07-03T00:50:23;6.30;;;3.63;;
60634;SDS011;46454;53.170;6.630;2022-07-03T00:52:51;5.72;;;3.80;;
60634;SDS011;46454;53.170;6.630;2022-07-03T00:55:19;5.75;;;4.03;;
60634;SDS011;46454;53.170;6.630;2022-07-03T00:57:48;6.20;;;4.00;;
60634;SDS011;46454;53.170;6.630;2022-07-03T01:00:14;5.32;;;3.97;;
60634;SDS011;46454;53.170;6.630;2022-07-03T01:02:51;6.78;;;3.70;;
60634;SDS011;46454;53.170;6.630;2022-07-03T01:05:31;8.93;;;3.63;;
60634;SDS011;46454;53.170;6.630;2022-07-03T01:16:04;4.65;;;3.55;;
60634;SDS011;46454;53.170;6.630;2022-07-03T01:18:40;5.57;;;3.85;;
60634;SDS011;46454;53.170;6.630;2022-07-03T01:21:34;7.68;;;3.53;;
60634;SDS011;46454;53.170;6.630;2022-07-03T01:27:16;4.95;;;3.40;;
60634;SDS011;46454;53.170;6.630;2022-07-03T01:32:44;5.13;;;3.45;;
60634;SDS011;46454;53.170;6.630;2022-07-03T01:35:13;7.45;;;3.80;;
60634;SDS011;46454;53.170;6.630;2022-07-03T01:37:45;7.50;;;3.90;;
60634;SDS011;46454;53.170;6.630;2022-07-03T01:40:13;7.22;;;3.95;;
60634;SDS011;46454;53.170;6.630;2022-07-03T01:42:42;9.00;;;4.10;;
60634;SDS011;46454;53.170;6.630;2022-07-03T01:45:10;5.22;;;3.90;;
60634;SDS011;46454;53.170;6.630;2022-07-03T01:47:40;6.28;;;4.63;;
60634;SDS011;46454;53.170;6.630;2022-07-03T01:50:10;5.22;;;4.03;;
60634;SDS011;46454;53.170;6.630;2022-07-03T01:52:42;6.57;;;4.65;;
60634;SDS011;46454;53.170;6.630;2022-07-03T01:55:10;6.50;;;4.32;;
60634;SDS011;46454;53.170;6.630;2022-07-03T01:57:48;6.25;;;4.40;;
60634;SDS011;46454;53.170;6.630;2022-07-03T02:00:18;7.65;;;3.88;;
60634;SDS011;46454;53.170;6.630;2022-07-03T02:02:56;6.07;;;4.18;;
60634;SDS011;46454;53.170;6.630;2022-07-03T02:05:30;5.88;;;4.72;;
60634;SDS011;46454;53.170;6.630;2022-07-03T02:10:34;7.05;;;4.25;;
60634;SDS011;46454;53.170;6.630;2022-07-03T02:13:16;7.07;;;5.00;;
60634;SDS011;46454;53.170;6.630;2022-07-03T02:15:44;5.65;;;4.38;;
60634;SDS011;46454;53.170;6.630;2022-07-03T02:18:25;4.97;;;3.80;;
60634;SDS011;46454;53.170;6.630;2022-07-03T02:21:03;5.78;;;4.03;;
60634;SDS011;46454;53.170;6.630;2022-07-03T02:23:53;6.30;;;4.50;;
60634;SDS011;46454;53.170;6.630;2022-07-03T02:26:33;5.55;;;4.60;;
60634;SDS011;46454;53.170;6.630;2022-07-03T02:29:04;5.78;;;4.47;;
60634;SDS011;46454;53.170;6.630;2022-07-03T02:31:44;6.03;;;4.35;;
60634;SDS011;46454;53.170;6.630;2022-07-03T02:34:13;6.15;;;5.10;;
60634;SDS011;46454;53.170;6.630;2022-07-03T02:36:47;5.40;;;4.25;;
60634;SDS011;46454;53.170;6.630;2022-07-03T02:39:23;6.43;;;5.38;;
60634;SDS011;46454;53.170;6.630;2022-07-03T02:42:00;6.75;;;4.28;;
60634;SDS011;46454;53.170;6.630;2022-07-03T02:44:35;6.78;;;4.47;;
60634;SDS011;46454;53.170;6.630;2022-07-03T02:50:04;7.70;;;5.45;;
60634;SDS011;46454;53.170;6.630;2022-07-03T02:55:08;5.78;;;4.97;;
60634;SDS011;46454;53.170;6.630;2022-07-03T02:57:37;6.22;;;4.88;;
60634;SDS011;46454;53.170;6.630;2022-07-03T03:00:05;8.35;;;4.80;;
60634;SDS011;46454;53.170;6.630;2022-07-03T03:05:34;6.80;;;4.60;;
60634;SDS011;46454;53.170;6.630;2022-07-03T03:08:24;6.90;;;4.65;;
60634;SDS011;46454;53.170;6.630;2022-07-03T03:11:09;6.88;;;4.88;;
60634;SDS011;46454;53.170;6.630;2022-07-03T03:13:46;6.65;;;4.80;;
60634;SDS011;46454;53.170;6.630;2022-07-03T03:16:15;6.55;;;5.20;;
60634;SDS011;46454;53.170;6.630;2022-07-03T03:18:41;7.00;;;4.38;;
60634;SDS011;46454;53.170;6.630;2022-07-03T03:21:10;6.47;;;4.57;;
60634;SDS011;46454;53.170;6.630;2022-07-03T03:23:47;7.15;;;4.85;;
60634;SDS011;46454;53.170;6.630;2022-07-03T03:26:21;6.45;;;4.97;;
60634;SDS011;46454;53.170;6.630;2022-07-03T03:28:48;7.25;;;4.90;;
60634;SDS011;46454;53.170;6.630;2022-07-03T03:31:15;6.47;;;4.75;;
60634;SDS011;46454;53.170;6.630;2022-07-03T03:33:48;6.28;;;5.13;;
60634;SDS011;46454;53.170;6.630;2022-07-03T03:36:17;7.18;;;4.57;;
60634;SDS011;46454;53.170;6.630;2022-07-03T03:38:44;5.93;;;4.63;;
60634;SDS011;46454;53.170;6.630;2022-07-03T03:41:11;5.97;;;4.70;;
60634;SDS011;46454;53.170;6.630;2022-07-03T03:43:37;6.50;;;4.82;;
60634;SDS011;46454;53.170;6.630;2022-07-03T03:46:03;5.38;;;4.55;;
60634;SDS011;46454;53.170;6.630;2022-07-03T03:48:33;6.35;;;4.70;;
60634;SDS011;46454;53.170;6.630;2022-07-03T03:51:00;4.70;;;4.18;;
60634;SDS011;46454;53.170;6.630;2022-07-03T03:53:27;6.45;;;5.00;;
60634;SDS011;46454;53.170;6.630;2022-07-03T03:56:00;7.82;;;5.03;;
60634;SDS011;46454;53.170;6.630;2022-07-03T03:58:28;7.78;;;5.07;;
60634;SDS011;46454;53.170;6.630;2022-07-03T04:00:58;4.95;;;4.20;;
60634;SDS011;46454;53.170;6.630;2022-07-03T04:03:25;5.88;;;4.55;;
60634;SDS011;46454;53.170;6.630;2022-07-03T04:05:52;5.82;;;4.40;;
60634;SDS011;46454;53.170;6.630;2022-07-03T04:08:19;6.80;;;4.90;;
60634;SDS011;46454;53.170;6.630;2022-07-03T04:10:46;5.45;;;4.22;;
60634;SDS011;46454;53.170;6.630;2022-07-03T04:13:12;6.88;;;4.70;;
60634;SDS011;46454;53.170;6.630;2022-07-03T04:15:38;6.40;;;4.47;;
60634;SDS011;46454;53.170;6.630;2022-07-03T04:18:04;5.55;;;4.32;;
60634;SDS011;46454;53.170;6.630;2022-07-03T04:20:30;5.82;;;4.85;;
60634;SDS011;46454;53.170;6.630;2022-07-03T04:22:56;6.22;;;4.47;;
60634;SDS011;46454;53.170;6.630;2022-07-03T04:25:22;5.93;;;4.18;;
60634;SDS011;46454;53.170;6.630;2022-07-03T04:27:48;8.07;;;4.80;;
60634;SDS011;46454;53.170;6.630;2022-07-03T04:30:14;5.15;;;4.20;;
60634;SDS011;46454;53.170;6.630;2022-07-03T04:32:40;5.72;;;4.53;;
60634;SDS011;46454;53.170;6.630;2022-07-03T04:35:06;5.80;;;4.53;;
60634;SDS011;46454;53.170;6.630;2022-07-03T04:37:32;6.25;;;4.25;;
60634;SDS011;46454;53.170;6.630;2022-07-03T04:39:58;5.97;;;4.30;;
60634;SDS011;46454;53.170;6.630;2022-07-03T04:42:23;6.45;;;4.00;;
60634;SDS011;46454;53.170;6.630;2022-07-03T04:44:49;6.18;;;5.00;;
60634;SDS011;46454;53.170;6.630;2022-07-03T04:47:15;5.38;;;4.65;;
60634;SDS011;46454;53.170;6.630;2022-07-03T04:49:41;7.05;;;4.60;;
60634;SDS011;46454;53.170;6.630;2022-07-03T04:52:07;5.95;;;4.57;;
60634;SDS011;46454;53.170;6.630;2022-07-03T04:54:33;4.85;;;4.35;;
60634;SDS011;46454;53.170;6.630;2022-07-03T04:56:59;5.20;;;4.18;;
60634;SDS011;46454;53.170;6.630;2022-07-03T04:59:24;6.53;;;4.78;;
60634;SDS011;46454;53.170;6.630;2022-07-03T05:01:50;8.43;;;4.53;;
60634;SDS011;46454;53.170;6.630;2022-07-03T05:04:16;6.35;;;4.93;;
60634;SDS011;46454;53.170;6.630;2022-07-03T05:06:43;5.75;;;4.78;;
60634;SDS011;46454;53.170;6.630;2022-07-03T05:09:09;5.53;;;4.78;;
60634;SDS011;46454;53.170;6.630;2022-07-03T05:11:34;6.18;;;4.90;;
60634;SDS011;46454;53.170;6.630;2022-07-03T05:14:01;7.28;;;5.50;;
60634;SDS011;46454;53.170;6.630;2022-07-03T05:16:27;6.28;;;5.13;;
60634;SDS011;46454;53.170;6.630;2022-07-03T05:18:53;6.43;;;5.20;;
60634;SDS011;46454;53.170;6.630;2022-07-03T05:21:19;6.75;;;4.90;;
60634;SDS011;46454;53.170;6.630;2022-07-03T05:23:44;6.18;;;4.97;;
60634;SDS011;46454;53.170;6.630;2022-07-03T05:26:10;7.45;;;5.00;;
60634;SDS011;46454;53.170;6.630;2022-07-03T05:28:36;7.60;;;5.38;;
60634;SDS011;46454;53.170;6.630;2022-07-03T05:31:02;7.10;;;4.63;;
60634;SDS011;46454;53.170;6.630;2022-07-03T05:33:28;6.03;;;4.63;;
60634;SDS011;46454;53.170;6.630;2022-07-03T05:35:54;6.30;;;5.00;;
60634;SDS011;46454;53.170;6.630;2022-07-03T05:38:20;5.85;;;4.70;;
60634;SDS011;46454;53.170;6.630;2022-07-03T05:41:05;8.70;;;4.47;;
60634;SDS011;46454;53.170;6.630;2022-07-03T05:43:31;6.85;;;4.07;;
60634;SDS011;46454;53.170;6.630;2022-07-03T05:45:57;7.10;;;3.90;;
60634;SDS011;46454;53.170;6.630;2022-07-03T05:48:23;6.38;;;3.05;;
60634;SDS011;46454;53.170;6.630;2022-07-03T05:50:48;4.43;;;3.05;;
60634;SDS011;46454;53.170;6.630;2022-07-03T05:53:14;5.78;;;3.20;;
60634;SDS011;46454;53.170;6.630;2022-07-03T05:55:40;3.97;;;2.70;;
60634;SDS011;46454;53.170;6.630;2022-07-03T05:58:05;6.72;;;2.65;;
60634;SDS011;46454;53.170;6.630;2022-07-03T06:00:31;5.82;;;2.80;;
60634;SDS011;46454;53.170;6.630;2022-07-03T06:02:57;4.70;;;2.58;;
60634;SDS011;46454;53.170;6.630;2022-07-03T06:05:23;4.38;;;2.45;;
60634;SDS011;46454;53.170;6.630;2022-07-03T06:07:48;5.65;;;2.63;;
60634;SDS011;46454;53.170;6.630;2022-07-03T06:10:15;4.25;;;2.70;;
60634;SDS011;46454;53.170;6.630;2022-07-03T06:12:41;4.75;;;2.85;;
60634;SDS011;46454;53.170;6.630;2022-07-03T06:15:06;4.53;;;2.88;;
60634;SDS011;46454;53.170;6.630;2022-07-03T06:17:34;5.32;;;2.60;;
60634;SDS011;46454;53.170;6.630;2022-07-03T06:20:01;4.15;;;2.50;;
60634;SDS011;46454;53.170;6.630;2022-07-03T06:22:31;7.50;;;2.63;;
60634;SDS011;46454;53.170;6.630;2022-07-03T06:24:58;5.68;;;2.58;;
60634;SDS011;46454;53.170;6.630;2022-07-03T06:27:24;4.68;;;2.40;;
60634;SDS011;46454;53.170;6.630;2022-07-03T06:29:50;5.63;;;2.40;;
60634;SDS011;46454;53.170;6.630;2022-07-03T06:32:16;6.75;;;2.45;;
60634;SDS011;46454;53.170;6.630;2022-07-03T06:34:42;4.53;;;2.55;;
60634;SDS011;46454;53.170;6.630;2022-07-03T06:37:08;4.18;;;2.20;;
60634;SDS011;46454;53.170;6.630;2022-07-03T06:39:34;4.30;;;2.15;;
60634;SDS011;46454;53.170;6.630;2022-07-03T06:42:00;6.20;;;1.90;;
60634;SDS011;46454;53.170;6.630;2022-07-03T06:44:26;3.97;;;1.52;;
60634;SDS011;46454;53.170;6.630;2022-07-03T06:46:52;3.10;;;1.60;;
60634;SDS011;46454;53.170;6.630;2022-07-03T06:49:18;4.85;;;1.60;;
60634;SDS011;46454;53.170;6.630;2022-07-03T06:51:44;4.07;;;1.60;;
60634;SDS011;46454;53.170;6.630;2022-07-03T06:54:10;3.13;;;1.55;;
60634;SDS011;46454;53.170;6.630;2022-07-03T06:56:36;2.53;;;1.40;;
60634;SDS011;46454;53.170;6.630;2022-07-03T06:59:02;6.65;;;1.52;;
60634;SDS011;46454;53.170;6.630;2022-07-03T07:01:27;4.18;;;1.50;;
60634;SDS011;46454;53.170;6.630;2022-07-03T07:03:53;5.72;;;1.65;;
60634;SDS011;46454;53.170;6.630;2022-07-03T07:06:19;4.80;;;1.70;;
60634;SDS011;46454;53.170;6.630;2022-07-03T07:08:45;5.20;;;1.73;;
60634;SDS011;46454;53.170;6.630;2022-07-03T07:11:18;2.45;;;1.50;;
60634;SDS011;46454;53.170;6.630;2022-07-03T07:13:44;5.93;;;1.75;;
60634;SDS011;46454;53.170;6.630;2022-07-03T07:16:10;33.45;;;2.72;;
60634;SDS011;46454;53.170;6.630;2022-07-03T07:18:35;4.50;;;1.63;;
60634;SDS011;46454;53.170;6.630;2022-07-03T07:21:01;2.60;;;1.40;;
60634;SDS011;46454;53.170;6.630;2022-07-03T07:23:27;3.67;;;1.80;;
60634;SDS011;46454;53.170;6.630;2022-07-03T07:25:53;5.53;;;1.75;;
60634;SDS011;46454;53.170;6.630;2022-07-03T07:28:18;4.18;;;1.40;;
60634;SDS011;46454;53.170;6.630;2022-07-03T07:30:44;5.05;;;1.50;;
60634;SDS011;46454;53.170;6.630;2022-07-03T07:33:10;5.15;;;1.40;;
60634;SDS011;46454;53.170;6.630;2022-07-03T07:35:36;2.78;;;1.40;;
60634;SDS011;46454;53.170;6.630;2022-07-03T07:38:02;2.80;;;1.30;;
60634;SDS011;46454;53.170;6.630;2022-07-03T07:40:27;4.35;;;1.48;;
60634;SDS011;46454;53.170;6.630;2022-07-03T07:42:53;3.83;;;1.20;;
60634;SDS011;46454;53.170;6.630;2022-07-03T07:45:20;2.80;;;1.20;;
60634;SDS011;46454;53.170;6.630;2022-07-03T07:47:47;4.68;;;1.30;;
60634;SDS011;46454;53.170;6.630;2022-07-03T07:50:13;6.60;;;1.60;;
60634;SDS011;46454;53.170;6.630;2022-07-03T07:52:39;4.10;;;1.50;;
60634;SDS011;46454;53.170;6.630;2022-07-03T07:55:05;4.80;;;1.38;;
60634;SDS011;46454;53.170;6.630;2022-07-03T07:57:36;5.97;;;2.10;;
60634;SDS011;46454;53.170;6.630;2022-07-03T08:00:06;5.03;;;1.48;;
60634;SDS011;46454;53.170;6.630;2022-07-03T08:02:33;4.35;;;1.30;;
60634;SDS011;46454;53.170;6.630;2022-07-03T08:05:17;3.75;;;1.20;;
60634;SDS011;46454;53.170;6.630;2022-07-03T08:08:22;3.38;;;1.08;;
60634;SDS011;46454;53.170;6.630;2022-07-03T08:10:50;1.92;;;1.00;;
60634;SDS011;46454;53.170;6.630;2022-07-03T08:13:17;3.15;;;1.20;;
60634;SDS011;46454;53.170;6.630;2022-07-03T08:15:43;2.60;;;1.20;;
60634;SDS011;46454;53.170;6.630;2022-07-03T08:18:10;4.20;;;1.42;;
60634;SDS011;46454;53.170;6.630;2022-07-03T08:20:36;4.15;;;1.02;;
60634;SDS011;46454;53.170;6.630;2022-07-03T08:23:02;2.15;;;1.10;;
60634;SDS011;46454;53.170;6.630;2022-07-03T08:25:30;3.08;;;1.20;;
60634;SDS011;46454;53.170;6.630;2022-07-03T08:27:56;3.22;;;1.38;;
60634;SDS011;46454;53.170;6.630;2022-07-03T08:30:23;3.75;;;1.27;;
60634;SDS011;46454;53.170;6.630;2022-07-03T08:32:49;3.08;;;1.20;;
60634;SDS011;46454;53.170;6.630;2022-07-03T08:35:17;2.97;;;1.10;;
60634;SDS011;46454;53.170;6.630;2022-07-03T08:37:43;3.10;;;1.27;;
60634;SDS011;46454;53.170;6.630;2022-07-03T08:40:11;2.40;;;1.10;;
60634;SDS011;46454;53.170;6.630;2022-07-03T08:45:14;5.68;;;1.90;;
60634;SDS011;46454;53.170;6.630;2022-07-03T08:47:42;3.30;;;1.30;;
60634;SDS011;46454;53.170;6.630;2022-07-03T08:50:10;4.10;;;1.30;;
60634;SDS011;46454;53.170;6.630;2022-07-03T08:52:37;4.88;;;1.40;;
60634;SDS011;46454;53.170;6.630;2022-07-03T08:55:03;4.88;;;1.42;;
60634;SDS011;46454;53.170;6.630;2022-07-03T08:57:30;5.13;;;1.55;;
60634;SDS011;46454;53.170;6.630;2022-07-03T09:00:00;4.28;;;1.27;;
60634;SDS011;46454;53.170;6.630;2022-07-03T09:02:29;4.82;;;1.48;;
60634;SDS011;46454;53.170;6.630;2022-07-03T09:04:57;4.45;;;1.40;;
60634;SDS011;46454;53.170;6.630;2022-07-03T09:07:24;4.65;;;1.35;;
60634;SDS011;46454;53.170;6.630;2022-07-03T09:09:51;4.25;;;1.20;;
60634;SDS011;46454;53.170;6.630;2022-07-03T09:12:23;3.28;;;1.17;;
60634;SDS011;46454;53.170;6.630;2022-07-03T09:14:53;3.50;;;0.90;;
60634;SDS011;46454;53.170;6.630;2022-07-03T09:17:19;2.85;;;0.90;;
60634;SDS011;46454;53.170;6.630;2022-07-03T09:19:47;3.50;;;1.00;;
60634;SDS011;46454;53.170;6.630;2022-07-03T09:22:16;1.73;;;0.85;;
60634;SDS011;46454;53.170;6.630;2022-07-03T09:25:10;2.13;;;0.70;;
60634;SDS011;46454;53.170;6.630;2022-07-03T09:27:48;3.10;;;0.70;;
60634;SDS011;46454;53.170;6.630;2022-07-03T09:30:15;2.53;;;0.70;;
60634;SDS011;46454;53.170;6.630;2022-07-03T09:32:42;2.00;;;0.68;;
60634;SDS011;46454;53.170;6.630;2022-07-03T09:35:19;1.35;;;0.70;;
60634;SDS011;46454;53.170;6.630;2022-07-03T09:40:23;2.30;;;0.70;;
60634;SDS011;46454;53.170;6.630;2022-07-03T09:43:05;1.50;;;0.70;;
60634;SDS011;46454;53.170;6.630;2022-07-03T09:48:40;3.00;;;0.70;;
60634;SDS011;46454;53.170;6.630;2022-07-03T09:51:20;3.63;;;0.70;;
60634;SDS011;46454;53.170;6.630;2022-07-03T09:53:49;4.00;;;0.80;;
60634;SDS011;46454;53.170;6.630;2022-07-03T09:56:18;3.80;;;0.70;;
60634;SDS011;46454;53.170;6.630;2022-07-03T09:59:05;4.18;;;0.90;;
60634;SDS011;46454;53.170;6.630;2022-07-03T10:01:34;1.77;;;0.65;;
60634;SDS011;46454;53.170;6.630;2022-07-03T10:04:08;1.48;;;0.98;;
60634;SDS011;46454;53.170;6.630;2022-07-03T10:06:51;2.05;;;0.70;;
60634;SDS011;46454;53.170;6.630;2022-07-03T10:09:25;2.65;;;0.90;;
60634;SDS011;46454;53.170;6.630;2022-07-03T10:11:54;5.13;;;0.77;;
60634;SDS011;46454;53.170;6.630;2022-07-03T10:14:21;1.60;;;0.70;;
60634;SDS011;46454;53.170;6.630;2022-07-03T10:16:50;2.42;;;0.80;;
60634;SDS011;46454;53.170;6.630;2022-07-03T10:19:20;2.45;;;0.70;;
60634;SDS011;46454;53.170;6.630;2022-07-03T10:21:52;3.28;;;0.88;;
60634;SDS011;46454;53.170;6.630;2022-07-03T10:24:20;1.50;;;0.57;;
60634;SDS011;46454;53.170;6.630;2022-07-03T10:26:48;2.13;;;0.68;;
60634;SDS011;46454;53.170;6.630;2022-07-03T10:29:15;3.42;;;0.77;;
60634;SDS011;46454;53.170;6.630;2022-07-03T10:31:44;1.08;;;0.60;;
60634;SDS011;46454;53.170;6.630;2022-07-03T10:34:12;3.40;;;0.70;;
60634;SDS011;46454;53.170;6.630;2022-07-03T10:36:42;2.53;;;0.73;;
60634;SDS011;46454;53.170;6.630;2022-07-03T10:39:08;2.95;;;0.90;;
60634;SDS011;46454;53.170;6.630;2022-07-03T10:41:48;3.60;;;0.80;;
60634;SDS011;46454;53.170;6.630;2022-07-03T10:44:48;2.53;;;0.70;;
60634;SDS011;46454;53.170;6.630;2022-07-03T10:47:57;2.92;;;0.70;;
60634;SDS011;46454;53.170;6.630;2022-07-03T10:50:15;1.02;;;0.55;;
60634;SDS011;46454;53.170;6.630;2022-07-03T10:52:42;2.17;;;0.70;;
60634;SDS011;46454;53.170;6.630;2022-07-03T10:55:10;2.25;;;0.73;;
60634;SDS011;46454;53.170;6.630;2022-07-03T10:57:37;1.58;;;0.70;;
60634;SDS011;46454;53.170;6.630;2022-07-03T11:00:23;2.58;;;0.90;;
60634;SDS011;46454;53.170;6.630;2022-07-03T11:02:49;2.08;;;0.63;;
60634;SDS011;46454;53.170;6.630;2022-07-03T11:18:08;1.10;;;0.65;;
60634;SDS011;46454;53.170;6.630;2022-07-03T11:25:39;2.08;;;0.70;;
60634;SDS011;46454;53.170;6.630;2022-07-03T11:28:08;3.63;;;0.70;;
60634;SDS011;46454;53.170;6.630;2022-07-03T11:33:47;2.22;;;0.85;;
60634;SDS011;46454;53.170;6.630;2022-07-03T11:41:25;3.05;;;0.80;;
60634;SDS011;46454;53.170;6.630;2022-07-03T11:44:00;2.72;;;1.00;;
60634;SDS011;46454;53.170;6.630;2022-07-03T11:46:28;1.80;;;1.02;;
60634;SDS011;46454;53.170;6.630;2022-07-03T11:51:35;3.00;;;1.00;;
60634;SDS011;46454;53.170;6.630;2022-07-03T11:54:01;3.85;;;0.80;;
60634;SDS011;46454;53.170;6.630;2022-07-03T11:56:28;1.65;;;0.80;;
60634;SDS011;46454;53.170;6.630;2022-07-03T11:58:55;4.38;;;1.30;;
60634;SDS011;46454;53.170;6.630;2022-07-03T12:03:51;4.72;;;1.20;;
60634;SDS011;46454;53.170;6.630;2022-07-03T12:06:26;4.55;;;0.98;;
60634;SDS011;46454;53.170;6.630;2022-07-03T12:08:51;2.65;;;0.90;;
60634;SDS011;46454;53.170;6.630;2022-07-03T12:11:20;3.58;;;1.05;;
60634;SDS011;46454;53.170;6.630;2022-07-03T12:13:45;4.35;;;1.10;;
60634;SDS011;46454;53.170;6.630;2022-07-03T12:16:12;3.05;;;1.08;;
60634;SDS011;46454;53.170;6.630;2022-07-03T12:18:52;4.38;;;1.25;;
60634;SDS011;46454;53.170;6.630;2022-07-03T12:21:21;4.13;;;0.90;;
60634;SDS011;46454;53.170;6.630;2022-07-03T12:26:28;4.55;;;1.10;;
60634;SDS011;46454;53.170;6.630;2022-07-03T12:28:56;3.42;;;1.05;;
60634;SDS011;46454;53.170;6.630;2022-07-03T12:31:22;5.38;;;1.30;;
60634;SDS011;46454;53.170;6.630;2022-07-03T12:33:48;6.20;;;1.20;;
60634;SDS011;46454;53.170;6.630;2022-07-03T12:36:14;4.38;;;1.00;;
60634;SDS011;46454;53.170;6.630;2022-07-03T12:38:40;3.45;;;1.15;;
60634;SDS011;46454;53.170;6.630;2022-07-03T12:41:06;5.60;;;1.10;;
60634;SDS011;46454;53.170;6.630;2022-07-03T12:43:39;3.90;;;1.02;;
60634;SDS011;46454;53.170;6.630;2022-07-03T12:46:22;3.67;;;1.10;;
60634;SDS011;46454;53.170;6.630;2022-07-03T12:48:59;4.07;;;1.25;;
60634;SDS011;46454;53.170;6.630;2022-07-03T12:54:42;4.82;;;1.15;;
60634;SDS011;46454;53.170;6.630;2022-07-03T12:57:05;6.22;;;1.27;;
60634;SDS011;46454;53.170;6.630;2022-07-03T13:02:32;6.57;;;1.30;;
60634;SDS011;46454;53.170;6.630;2022-07-03T13:04:59;3.92;;;1.10;;
60634;SDS011;46454;53.170;6.630;2022-07-03T13:07:32;5.85;;;1.48;;
60634;SDS011;46454;53.170;6.630;2022-07-03T13:10:00;5.38;;;1.15;;
60634;SDS011;46454;53.170;6.630;2022-07-03T13:12:27;6.15;;;1.20;;
60634;SDS011;46454;53.170;6.630;2022-07-03T13:14:57;4.13;;;0.95;;
60634;SDS011;46454;53.170;6.630;2022-07-03T13:17:23;3.53;;;1.20;;
60634;SDS011;46454;53.170;6.630;2022-07-03T13:20:09;5.40;;;1.15;;
60634;SDS011;46454;53.170;6.630;2022-07-03T13:22:35;5.60;;;1.20;;
60634;SDS011;46454;53.170;6.630;2022-07-03T13:25:01;6.22;;;1.30;;
60634;SDS011;46454;53.170;6.630;2022-07-03T13:27:26;5.80;;;1.30;;
60634;SDS011;46454;53.170;6.630;2022-07-03T13:29:52;4.03;;;1.10;;
60634;SDS011;46454;53.170;6.630;2022-07-03T13:32:18;3.90;;;1.30;;
60634;SDS011;46454;53.170;6.630;2022-07-03T13:34:43;5.43;;;1.23;;
60634;SDS011;46454;53.170;6.630;2022-07-03T13:37:09;4.50;;;1.27;;
60634;SDS011;46454;53.170;6.630;2022-07-03T13:39:35;2.92;;;0.90;;
60634;SDS011;46454;53.170;6.630;2022-07-03T13:42:00;5.10;;;1.05;;
60634;SDS011;46454;53.170;6.630;2022-07-03T13:44:29;4.18;;;1.13;;
60634;SDS011;46454;53.170;6.630;2022-07-03T13:46:55;4.63;;;1.17;;
60634;SDS011;46454;53.170;6.630;2022-07-03T13:49:20;3.30;;;1.02;;
60634;SDS011;46454;53.170;6.630;2022-07-03T13:51:46;3.90;;;1.10;;
60634;SDS011;46454;53.170;6.630;2022-07-03T13:54:12;3.08;;;1.10;;
60634;SDS011;46454;53.170;6.630;2022-07-03T13:56:37;3.20;;;1.00;;
60634;SDS011;46454;53.170;6.630;2022-07-03T13:59:03;5.43;;;1.10;;
60634;SDS011;46454;53.170;6.630;2022-07-03T14:01:29;3.38;;;1.30;;
60634;SDS011;46454;53.170;6.630;2022-07-03T14:03:55;5.05;;;1.27;;
60634;SDS011;46454;53.170;6.630;2022-07-03T14:06:21;6.60;;;1.70;;
60634;SDS011;46454;53.170;6.630;2022-07-03T14:08:46;3.38;;;1.20;;
60634;SDS011;46454;53.170;6.630;2022-07-03T14:11:12;4.63;;;1.58;;
60634;SDS011;46454;53.170;6.630;2022-07-03T14:13:40;4.25;;;1.60;;
60634;SDS011;46454;53.170;6.630;2022-07-03T14:16:05;4.25;;;1.45;;
60634;SDS011;46454;53.170;6.630;2022-07-03T14:18:31;8.30;;;2.05;;
60634;SDS011;46454;53.170;6.630;2022-07-03T14:21:00;8.98;;;2.55;;
60634;SDS011;46454;53.170;6.630;2022-07-03T14:23:25;10.57;;;3.28;;
60634;SDS011;46454;53.170;6.630;2022-07-03T14:25:51;9.40;;;2.35;;
60634;SDS011;46454;53.170;6.630;2022-07-03T14:28:17;6.22;;;2.00;;
60634;SDS011;46454;53.170;6.630;2022-07-03T14:31:01;4.25;;;1.80;;
60634;SDS011;46454;53.170;6.630;2022-07-03T14:33:44;3.25;;;1.70;;
60634;SDS011;46454;53.170;6.630;2022-07-03T14:36:10;4.40;;;1.75;;
60634;SDS011;46454;53.170;6.630;2022-07-03T14:38:36;4.30;;;1.90;;
60634;SDS011;46454;53.170;6.630;2022-07-03T14:41:02;4.55;;;1.80;;
60634;SDS011;46454;53.170;6.630;2022-07-03T14:43:27;4.35;;;1.73;;
60634;SDS011;46454;53.170;6.630;2022-07-03T14:45:53;4.70;;;1.95;;
60634;SDS011;46454;53.170;6.630;2022-07-03T14:48:20;5.00;;;2.10;;
60634;SDS011;46454;53.170;6.630;2022-07-03T14:50:46;3.97;;;2.10;;
60634;SDS011;46454;53.170;6.630;2022-07-03T14:53:12;4.35;;;1.98;;
60634;SDS011;46454;53.170;6.630;2022-07-03T14:55:41;3.25;;;2.00;;
60634;SDS011;46454;53.170;6.630;2022-07-03T14:58:13;3.92;;;2.17;;
60634;SDS011;46454;53.170;6.630;2022-07-03T15:00:41;4.18;;;2.25;;
60634;SDS011;46454;53.170;6.630;2022-07-03T15:03:13;3.97;;;2.67;;
60634;SDS011;46454;53.170;6.630;2022-07-03T15:05:42;5.03;;;2.85;;
60634;SDS011;46454;53.170;6.630;2022-07-03T15:10:53;5.63;;;2.92;;
60634;SDS011;46454;53.170;6.630;2022-07-03T15:13:20;6.10;;;3.10;;
60634;SDS011;46454;53.170;6.630;2022-07-03T15:15:48;4.20;;;2.63;;
60634;SDS011;46454;53.170;6.630;2022-07-03T15:18:16;8.15;;;4.00;;
60634;SDS011;46454;53.170;6.630;2022-07-03T15:20:43;6.28;;;3.00;;
60634;SDS011;46454;53.170;6.630;2022-07-03T15:23:09;5.72;;;3.50;;
60634;SDS011;46454;53.170;6.630;2022-07-03T15:25:36;7.45;;;3.33;;
60634;SDS011;46454;53.170;6.630;2022-07-03T15:28:03;6.55;;;3.15;;
60634;SDS011;46454;53.170;6.630;2022-07-03T15:30:33;6.80;;;2.92;;
60634;SDS011;46454;53.170;6.630;2022-07-03T15:32:59;5.53;;;2.90;;
60634;SDS011;46454;53.170;6.630;2022-07-03T15:35:25;4.10;;;2.70;;
60634;SDS011;46454;53.170;6.630;2022-07-03T15:40:24;8.30;;;2.70;;
60634;SDS011;46454;53.170;6.630;2022-07-03T15:51:25;6.22;;;2.50;;
60634;SDS011;46454;53.170;6.630;2022-07-03T15:54:09;3.58;;;2.05;;
60634;SDS011;46454;53.170;6.630;2022-07-03T15:56:37;3.28;;;1.90;;
60634;SDS011;46454;53.170;6.630;2022-07-03T15:59:11;5.78;;;1.80;;
60634;SDS011;46454;53.170;6.630;2022-07-03T16:01:57;6.28;;;2.17;;
60634;SDS011;46454;53.170;6.630;2022-07-03T16:07:11;3.38;;;2.10;;
60634;SDS011;46454;53.170;6.630;2022-07-03T16:09:40;4.60;;;2.00;;
60634;SDS011;46454;53.170;6.630;2022-07-03T16:12:08;6.10;;;2.33;;
60634;SDS011;46454;53.170;6.630;2022-07-03T16:14:53;3.92;;;2.00;;
60634;SDS011;46454;53.170;6.630;2022-07-03T16:17:20;5.72;;;2.47;;
60634;SDS011;46454;53.170;6.630;2022-07-03T16:19:47;6.45;;;2.28;;
60634;SDS011;46454;53.170;6.630;2022-07-03T16:22:16;4.70;;;2.17;;
60634;SDS011;46454;53.170;6.630;2022-07-03T16:24:42;4.65;;;2.10;;
60634;SDS011;46454;53.170;6.630;2022-07-03T16:27:17;3.80;;;2.00;;
60634;SDS011;46454;53.170;6.630;2022-07-03T16:29:44;5.97;;;2.40;;